Metar Aviation Weather Data     EFOU Oulu Airport
Temperature
18°C Temperature
18°C Dewpoint
100% Humidity



Wind
11 KM/H
7 MPH
3 M/S
6 KTS



150°
SSE
Current Conditions

Light Showers, Rain, Area Thunderstorm Light Showers, Rain, Area Thunderstorm
Pressure 1009.92 (hPa) - 29.82 (inHg)
Visibility 6.2 (mile) - 10 (km)
Airport
Airport-code EFOU

Location: Oulu Airport
Distance: 83 (km)

Metar:
EFOU 171850Z AUTO 15006KT 9999 -SHRA VCTS SCT007 //////CB 18/18 Q1010

Time: 17-08-2022 21:50 EEST